Time;durP1;ratioP1;P1;durP2;ratioP2;P2;SDS_P1;SDS_P2;PMS_P1;PMS_P2;Temp;Humidity;BMP_temperature;BMP_pressure;BME280_temperature;BME280_humidity;BME280_pressure;Samples;Min_cycle;Max_cycle;Signal;HPM_P1;HPM_P2
2023/05/10 00:01:56;;;;;;;10.60;6.75;;;14.30;99.90;;;;;;5077221;28;20135;-86
2023/05/10 00:04:21;;;;;;;11.30;7.13;;;14.30;99.90;;;;;;5080815;27;20046;-85
2023/05/10 00:06:47;;;;;;;11.18;7.57;;;14.20;99.90;;;;;;5080384;28;20039;-86
2023/05/10 00:09:13;;;;;;;14.20;12.80;;;14.10;99.90;;;;;;5099010;28;20036;-86
2023/05/10 00:11:40;;;;;;;10.65;7.00;;;14.10;99.90;;;;;;5082898;28;20183;-86
2023/05/10 00:14:05;;;;;;;10.77;6.60;;;14.10;99.90;;;;;;5083336;28;20118;-86
2023/05/10 00:16:31;;;;;;;11.40;8.45;;;14.10;99.90;;;;;;5103653;28;20039;-86
2023/05/10 00:18:56;;;;;;;11.82;10.63;;;14.00;99.90;;;;;;5085092;28;20050;-86
2023/05/10 00:21:22;;;;;;;10.60;6.50;;;14.00;99.90;;;;;;5096413;28;20089;-86
2023/05/10 00:23:47;;;;;;;12.55;11.25;;;14.00;99.90;;;;;;5079983;28;20036;-86
2023/05/10 00:26:13;;;;;;;9.45;5.60;;;14.00;99.90;;;;;;5078320;28;20122;-85
2023/05/10 00:28:39;;;;;;;9.00;5.50;;;13.90;99.90;;;;;;5082666;28;20374;-86
2023/05/10 00:31:04;;;;;;;10.05;6.32;;;13.90;99.90;;;;;;5101737;28;20083;-86
2023/05/10 00:33:30;;;;;;;11.63;10.23;;;13.80;99.90;;;;;;5097365;28;20114;-85
2023/05/10 00:35:56;;;;;;;10.50;5.80;;;13.80;99.90;;;;;;5100520;28;20027;-86
2023/05/10 00:38:21;;;;;;;9.85;5.70;;;13.80;99.90;;;;;;5083638;28;20748;-86
2023/05/10 00:40:47;;;;;;;10.88;6.32;;;13.80;99.90;;;;;;5103632;28;20097;-85
2023/05/10 00:43:13;;;;;;;10.55;7.10;;;13.80;99.90;;;;;;5085547;28;20122;-86
2023/05/10 00:45:40;;;;;;;13.18;11.88;;;13.70;99.90;;;;;;5088337;28;20408;-86
2023/05/10 00:48:05;;;;;;;11.98;6.70;;;13.80;99.90;;;;;;5068809;28;20451;-85
2023/05/10 00:50:32;;;;;;;13.88;7.40;;;13.80;99.90;;;;;;5064854;28;20123;-86
2023/05/10 00:53:00;;;;;;;16.67;15.07;;;13.70;99.90;;;;;;5073188;28;20047;-86
2023/05/10 00:55:25;;;;;;;11.57;8.30;;;13.70;99.90;;;;;;5056603;28;20032;-86
2023/05/10 00:57:52;;;;;;;13.98;8.55;;;13.70;99.90;;;;;;5055866;28;20059;-85
2023/05/10 01:00:18;;;;;;;12.77;7.95;;;13.70;99.90;;;;;;5060968;28;20519;-86
2023/05/10 01:02:46;;;;;;;13.50;8.43;;;13.60;99.90;;;;;;5067387;28;20036;-87
2023/05/10 01:05:11;;;;;;;17.67;16.02;;;13.60;99.90;;;;;;5090178;28;20039;-87
2023/05/10 01:07:37;;;;;;;13.32;8.52;;;13.60;99.90;;;;;;5056118;28;20418;-86
2023/05/10 01:10:04;;;;;;;13.65;9.05;;;13.60;99.90;;;;;;5055641;28;20044;-86
2023/05/10 01:12:30;;;;;;;13.02;8.35;;;13.60;99.90;;;;;;5072729;28;20123;-86
2023/05/10 01:14:55;;;;;;;18.10;16.23;;;13.50;99.90;;;;;;5076746;28;20115;-86
2023/05/10 01:17:22;;;;;;;19.52;17.63;;;13.50;99.90;;;;;;5063261;28;20055;-86
2023/05/10 01:19:48;;;;;;;14.10;8.63;;;13.60;99.90;;;;;;5072683;28;20047;-87
2023/05/10 01:23:10;;;;;;;14.30;8.18;;;13.60;99.90;;;;;;5059742;28;20401;-87
2023/05/10 01:25:57;;;;;;;13.55;7.78;;;13.50;99.90;;;;;;5059327;28;20182;-86
2023/05/10 01:28:37;;;;;;;14.05;8.68;;;13.50;99.90;;;;;;5067427;28;20044;-86
2023/05/10 01:31:30;;;;;;;18.45;16.70;;;13.50;99.90;;;;;;5059540;28;20089;-86
2023/05/10 01:34:01;;;;;;;13.00;8.15;;;13.50;99.90;;;;;;5059779;28;20540;-86
2023/05/10 01:36:43;;;;;;;13.55;7.60;;;13.50;99.90;;;;;;5085800;28;20066;-86
2023/05/10 01:39:20;;;;;;;14.60;8.00;;;13.50;99.90;;;;;;5091728;28;20044;-87
2023/05/10 01:41:55;;;;;;;17.83;16.02;;;13.40;99.90;;;;;;5059424;28;20489;-86
2023/05/10 01:44:31;;;;;;;13.70;8.23;;;13.50;99.90;;;;;;5059632;28;20408;-86
2023/05/10 01:47:10;;;;;;;13.50;7.10;;;13.50;99.90;;;;;;5076400;28;20042;-86
2023/05/10 01:49:49;;;;;;;13.45;7.53;;;13.40;99.90;;;;;;5076228;28;20374;-86
2023/05/10 01:52:19;;;;;;;13.25;8.57;;;13.40;99.90;;;;;;5059629;28;20127;-87
2023/05/10 01:54:58;;;;;;;12.93;7.57;;;13.40;99.90;;;;;;5059132;28;20024;-86
2023/05/10 01:57:27;;;;;;;12.90;8.38;;;13.40;99.90;;;;;;5073366;28;20039;-86
2023/05/10 01:59:54;;;;;;;16.55;14.85;;;13.40;99.90;;;;;;5087004;28;20065;-86
2023/05/10 02:02:21;;;;;;;15.82;14.02;;;13.40;99.90;;;;;;5090594;28;20119;-86
2023/05/10 02:04:50;;;;;;;14.95;8.20;;;13.50;99.90;;;;;;5075627;28;20430;-86
2023/05/10 02:07:17;;;;;;;11.88;7.00;;;13.40;99.90;;;;;;5066670;28;20393;-86
2023/05/10 02:09:47;;;;;;;12.77;7.15;;;13.40;99.90;;;;;;5090987;28;20506;-87
2023/05/10 02:12:14;;;;;;;12.18;6.53;;;13.40;99.90;;;;;;5086837;28;20081;-86
2023/05/10 02:14:42;;;;;;;13.82;8.60;;;13.40;99.90;;;;;;5065376;28;20031;-87
2023/05/10 02:17:09;;;;;;;17.23;15.25;;;13.40;99.90;;;;;;5068726;28;20046;-86
2023/05/10 02:19:37;;;;;;;14.07;8.50;;;13.40;99.90;;;;;;5057968;28;20040;-87
2023/05/10 02:22:03;;;;;;;11.60;5.88;;;13.40;99.90;;;;;;5075286;28;20040;-87
2023/05/10 02:24:30;;;;;;;14.63;12.75;;;13.30;99.90;;;;;;5075272;28;20032;-87
2023/05/10 02:26:57;;;;;;;13.10;6.30;;;13.40;99.90;;;;;;5081791;28;20046;-87
2023/05/10 02:29:25;;;;;;;11.02;5.90;;;13.30;99.90;;;;;;5084817;28;20404;-86
2023/05/10 02:31:55;;;;;;;11.13;6.00;;;13.30;99.90;;;;;;5074949;28;20032;-87
2023/05/10 02:34:27;;;;;;;10.35;5.25;;;13.30;99.90;;;;;;5074945;28;20507;-87
2023/05/10 02:36:54;;;;;;;10.30;5.68;;;13.20;99.90;;;;;;5062888;28;20036;-86
2023/05/10 02:39:21;;;;;;;9.93;5.90;;;13.20;99.90;;;;;;5069512;28;20032;-87
2023/05/10 02:41:48;;;;;;;9.80;5.88;;;13.20;99.90;;;;;;5091084;28;20044;-87
2023/05/10 02:44:16;;;;;;;12.35;10.27;;;13.20;99.90;;;;;;5057224;28;20044;-87
2023/05/10 02:46:43;;;;;;;12.13;10.50;;;13.30;99.90;;;;;;5069951;28;20065;-86
2023/05/10 02:49:09;;;;;;;13.00;5.10;;;13.30;99.90;;;;;;5094222;28;20044;-86
2023/05/10 02:51:37;;;;;;;10.15;5.13;;;13.30;99.90;;;;;;5085280;28;20047;-86
2023/05/10 02:54:10;;;;;;;10.15;5.28;;;13.20;99.90;;;;;;5087348;28;20497;-86
2023/05/10 02:56:40;;;;;;;11.52;5.68;;;13.20;99.90;;;;;;5068768;28;20047;-86
2023/05/10 02:59:06;;;;;;;10.30;6.05;;;13.20;99.90;;;;;;5074900;28;20489;-86
2023/05/10 03:01:32;;;;;;;9.95;5.55;;;13.20;99.90;;;;;;5061619;28;20134;-86
2023/05/10 03:03:57;;;;;;;11.82;6.20;;;13.20;99.90;;;;;;5084890;28;20043;-86
2023/05/10 03:06:23;;;;;;;10.85;5.80;;;13.10;99.90;;;;;;5068887;28;20039;-87
2023/05/10 03:08:49;;;;;;;10.88;5.50;;;13.20;99.90;;;;;;5094067;28;20110;-86
2023/05/10 03:11:15;;;;;;;11.27;5.30;;;13.20;99.90;;;;;;5085676;28;20097;-86
2023/05/10 03:13:55;;;;;;;11.00;6.85;;;13.10;99.90;;;;;;5085808;28;20043;-87
2023/05/10 03:16:40;;;;;;;10.38;5.43;;;13.20;99.90;;;;;;5061156;28;20481;-86
2023/05/10 03:19:10;;;;;;;9.95;5.35;;;13.20;99.90;;;;;;5068819;28;20036;-86
2023/05/10 03:21:40;;;;;;;9.32;5.53;;;13.10;99.90;;;;;;5065826;28;20050;-86
2023/05/10 03:24:08;;;;;;;10.65;6.10;;;13.10;99.90;;;;;;5075024;28;20039;-86
2023/05/10 03:26:36;;;;;;;10.13;4.57;;;13.10;99.90;;;;;;5074208;28;20366;-86
2023/05/10 03:29:03;;;;;;;9.73;5.00;;;13.10;99.90;;;;;;5074062;28;20044;-86
2023/05/10 03:31:28;;;;;;;12.07;9.63;;;13.10;99.90;;;;;;5076146;28;21909;-86
2023/05/10 03:33:54;;;;;;;11.93;9.60;;;13.20;99.90;;;;;;5093844;28;20039;-86
2023/05/10 03:36:20;;;;;;;10.10;6.18;;;13.20;99.90;;;;;;5083924;28;20040;-86
2023/05/10 03:38:45;;;;;;;9.40;4.63;;;13.20;99.90;;;;;;5057486;28;20035;-86
2023/05/10 03:41:11;;;;;;;9.48;5.20;;;13.20;99.90;;;;;;5056980;28;20039;-86
2023/05/10 03:43:36;;;;;;;9.90;4.55;;;13.10;99.90;;;;;;5073179;28;20526;-86
2023/05/10 03:46:05;;;;;;;9.75;4.68;;;13.10;99.90;;;;;;5057107;28;20040;-86
2023/05/10 03:48:32;;;;;;;9.88;6.47;;;13.00;99.90;;;;;;5074005;28;20040;-87
2023/05/10 03:50:58;;;;;;;10.52;5.30;;;13.00;99.90;;;;;;5073684;28;20044;-87
2023/05/10 03:53:24;;;;;;;11.40;4.85;;;13.00;99.90;;;;;;5057175;28;20745;-86
2023/05/10 03:55:50;;;;;;;12.52;9.93;;;13.00;99.90;;;;;;5073452;28;20040;-86
2023/05/10 03:58:15;;;;;;;12.25;10.00;;;13.00;99.90;;;;;;5087525;28;20077;-86
2023/05/10 04:00:44;;;;;;;9.60;5.35;;;13.00;99.90;;;;;;5067876;28;20072;-86
2023/05/10 04:03:11;;;;;;;10.25;4.80;;;13.10;99.90;;;;;;5093974;28;20035;-86
2023/05/10 04:05:36;;;;;;;10.95;5.30;;;13.00;99.90;;;;;;5077109;28;20051;-86
2023/05/10 04:08:02;;;;;;;9.27;5.22;;;13.00;99.90;;;;;;5077046;28;20039;-86
2023/05/10 04:10:28;;;;;;;11.13;5.82;;;12.90;99.90;;;;;;5076997;28;20563;-86
2023/05/10 04:12:53;;;;;;;10.52;5.68;;;13.00;99.90;;;;;;5094206;28;20169;-86
2023/05/10 04:15:19;;;;;;;11.57;6.20;;;13.00;99.90;;;;;;5077389;28;20122;-86
2023/05/10 04:17:45;;;;;;;11.35;6.50;;;13.00;99.90;;;;;;5077046;28;20610;-86
2023/05/10 04:20:11;;;;;;;11.27;6.57;;;13.00;99.90;;;;;;5082139;28;20047;-86
2023/05/10 04:22:37;;;;;;;10.43;5.60;;;12.90;99.90;;;;;;5114321;28;20066;-86
2023/05/10 04:25:03;;;;;;;13.45;5.97;;;13.00;99.90;;;;;;5097493;28;20437;-87
2023/05/10 04:27:28;;;;;;;12.50;7.45;;;12.90;99.90;;;;;;5113084;28;20504;-87
2023/05/10 04:29:54;;;;;;;12.70;6.72;;;13.00;99.90;;;;;;5073182;28;20042;-87
2023/05/10 04:32:20;;;;;;;11.07;5.68;;;13.00;99.90;;;;;;5057217;28;20370;-87
2023/05/10 04:34:46;;;;;;;15.82;12.45;;;12.90;99.90;;;;;;5056847;28;20507;-87
2023/05/10 04:37:11;;;;;;;11.70;5.95;;;13.00;99.90;;;;;;5073471;28;20040;-86
2023/05/10 04:39:37;;;;;;;11.38;5.72;;;13.00;99.90;;;;;;5073316;28;20405;-86
2023/05/10 04:42:03;;;;;;;12.93;6.05;;;13.00;99.90;;;;;;5056860;28;20046;-87
2023/05/10 04:44:29;;;;;;;14.05;11.88;;;13.00;99.90;;;;;;5056719;28;20047;-87
2023/05/10 04:46:55;;;;;;;11.48;6.68;;;13.00;99.90;;;;;;5057203;28;20047;-87
2023/05/10 04:49:21;;;;;;;13.60;6.13;;;13.00;99.90;;;;;;5077519;28;20048;-86
2023/05/10 04:51:47;;;;;;;11.75;6.45;;;13.00;99.90;;;;;;5076973;28;20044;-86
2023/05/10 04:54:12;;;;;;;11.60;6.55;;;13.00;99.90;;;;;;5060653;28;20036;-86
2023/05/10 04:56:38;;;;;;;13.95;6.32;;;12.90;99.90;;;;;;5077162;28;20127;-86
2023/05/10 04:59:03;;;;;;;13.60;7.40;;;12.90;99.90;;;;;;5077442;28;20032;-86
2023/05/10 05:01:29;;;;;;;11.43;6.15;;;13.00;99.90;;;;;;5060689;28;20032;-86
2023/05/10 05:03:55;;;;;;;12.80;6.40;;;13.00;99.90;;;;;;5077248;28;20485;-86
2023/05/10 05:06:20;;;;;;;13.63;11.77;;;13.00;99.90;;;;;;5077013;28;20501;-86
2023/05/10 05:08:46;;;;;;;9.60;4.90;;;13.00;99.90;;;;;;5060300;28;20119;-86
2023/05/10 05:11:12;;;;;;;12.32;4.80;;;13.00;99.90;;;;;;5060026;28;20040;-86
2023/05/10 05:13:38;;;;;;;12.93;5.82;;;13.00;99.90;;;;;;5060255;28;20040;-86
2023/05/10 05:16:04;;;;;;;11.02;5.30;;;12.90;99.90;;;;;;5077029;28;20035;-86
2023/05/10 05:18:30;;;;;;;10.20;4.93;;;12.90;99.90;;;;;;5076728;28;20040;-86
2023/05/10 05:20:56;;;;;;;9.00;4.47;;;12.90;99.90;;;;;;5060094;28;20040;-86
2023/05/10 05:23:24;;;;;;;12.35;4.85;;;12.90;99.90;;;;;;5076844;28;20047;-86
2023/05/10 05:25:52;;;;;;;11.43;6.13;;;12.90;99.90;;;;;;5076677;28;20131;-86
2023/05/10 05:28:18;;;;;;;14.57;10.52;;;12.90;99.90;;;;;;5076714;28;20035;-86
2023/05/10 05:30:44;;;;;;;13.13;10.40;;;12.90;99.90;;;;;;5059547;28;20109;-86
2023/05/10 05:33:09;;;;;;;12.13;5.32;;;13.00;99.90;;;;;;5059918;28;20074;-86
2023/05/10 05:35:35;;;;;;;11.13;5.07;;;13.00;99.90;;;;;;5076610;28;20067;-86
2023/05/10 05:38:00;;;;;;;11.38;5.00;;;13.00;99.90;;;;;;5076496;28;20032;-87
2023/05/10 05:40:26;;;;;;;10.55;4.32;;;12.90;99.90;;;;;;5059532;28;20405;-86
2023/05/10 05:42:52;;;;;;;11.25;5.05;;;12.90;99.90;;;;;;5059634;28;20032;-86
2023/05/10 05:45:17;;;;;;;11.27;4.70;;;13.00;99.90;;;;;;5076641;28;20040;-86
2023/05/10 05:47:43;;;;;;;9.90;4.88;;;12.90;99.90;;;;;;5076386;28;20382;-86
2023/05/10 05:50:09;;;;;;;15.77;4.72;;;13.00;99.90;;;;;;5059612;28;20043;-86
2023/05/10 05:52:35;;;;;;;11.15;5.35;;;13.00;99.90;;;;;;5059808;28;20059;-86
2023/05/10 05:55:01;;;;;;;12.98;4.82;;;13.00;99.90;;;;;;5076414;28;20044;-86
2023/05/10 05:57:27;;;;;;;12.05;5.60;;;13.00;99.90;;;;;;5076085;28;20477;-86
2023/05/10 05:59:52;;;;;;;11.55;5.63;;;13.00;99.90;;;;;;5058564;28;20032;-86
2023/05/10 06:02:18;;;;;;;11.85;4.55;;;13.00;99.90;;;;;;5059368;28;20040;-87
2023/05/10 06:04:44;;;;;;;11.02;5.03;;;13.10;99.90;;;;;;5059288;28;20044;-86
2023/05/10 06:07:09;;;;;;;10.43;5.15;;;13.00;99.90;;;;;;5075868;28;20119;-87
2023/05/10 06:09:35;;;;;;;11.75;4.72;;;13.00;99.90;;;;;;5075659;28;20044;-86
2023/05/10 06:12:01;;;;;;;16.08;10.63;;;13.00;99.90;;;;;;5059251;28;20036;-87
2023/05/10 06:14:27;;;;;;;10.68;5.07;;;13.10;99.90;;;;;;5075766;28;20036;-87
2023/05/10 06:16:52;;;;;;;11.90;5.60;;;13.10;99.90;;;;;;5075589;28;20089;-87
2023/05/10 06:19:18;;;;;;;13.45;6.25;;;13.10;99.90;;;;;;5058982;28;20034;-86
2023/05/10 06:21:43;;;;;;;12.52;5.25;;;13.10;99.90;;;;;;5059015;28;20063;-86
2023/05/10 06:24:09;;;;;;;12.13;6.18;;;13.10;99.90;;;;;;5058971;28;20500;-86
2023/05/10 06:26:35;;;;;;;13.00;6.70;;;13.10;99.90;;;;;;5075907;28;20032;-86
2023/05/10 06:29:01;;;;;;;15.35;11.65;;;13.10;99.90;;;;;;5059009;28;20545;-86
2023/05/10 06:31:26;;;;;;;11.13;5.30;;;13.20;99.90;;;;;;5071154;27;20119;-87
2023/05/10 06:33:52;;;;;;;15.52;6.15;;;13.20;99.90;;;;;;5096211;27;20455;-86
2023/05/10 06:36:18;;;;;;;14.02;5.68;;;13.20;99.90;;;;;;5099304;27;20039;-86
2023/05/10 06:38:44;;;;;;;11.68;4.72;;;13.30;99.90;;;;;;5099324;27;20035;-86
2023/05/10 06:41:09;;;;;;;16.85;11.60;;;13.30;99.90;;;;;;5115719;27;20531;-86
2023/05/10 06:43:35;;;;;;;11.50;5.30;;;13.40;99.90;;;;;;5115878;27;20050;-86
2023/05/10 06:46:00;;;;;;;9.85;4.43;;;13.50;99.90;;;;;;5098808;27;20039;-86
2023/05/10 06:48:26;;;;;;;10.50;4.47;;;13.40;99.90;;;;;;5115973;27;20103;-86
2023/05/10 06:50:52;;;;;;;11.60;4.93;;;13.40;99.90;;;;;;5115640;27;20492;-86
2023/05/10 06:53:17;;;;;;;13.02;9.75;;;13.50;99.90;;;;;;5115697;27;20031;-86
2023/05/10 06:55:43;;;;;;;10.68;4.63;;;13.50;99.90;;;;;;5115783;27;20038;-86
2023/05/10 06:58:08;;;;;;;14.70;5.03;;;13.60;99.90;;;;;;5115893;27;20043;-87
2023/05/10 07:00:34;;;;;;;10.60;5.25;;;13.60;99.90;;;;;;5115262;27;20438;-87
2023/05/10 07:03:00;;;;;;;10.55;4.40;;;13.60;99.90;;;;;;5115543;27;20039;-87
2023/05/10 07:05:27;;;;;;;11.93;7.88;;;13.70;99.90;;;;;;5098924;27;20385;-87
2023/05/10 07:07:53;;;;;;;10.25;5.15;;;13.70;99.90;;;;;;5115345;27;20049;-87
2023/05/10 07:10:18;;;;;;;11.70;4.57;;;13.70;99.90;;;;;;5114645;28;20043;-87
2023/05/10 07:12:44;;;;;;;11.77;5.20;;;13.70;99.90;;;;;;5115186;27;20080;-87
2023/05/10 07:15:10;;;;;;;10.48;4.88;;;13.70;99.90;;;;;;5098153;27;20070;-86
2023/05/10 07:17:35;;;;;;;12.73;8.18;;;13.70;99.90;;;;;;5115360;27;20474;-87
2023/05/10 07:20:01;;;;;;;10.13;4.45;;;13.70;99.90;;;;;;5098033;27;20035;-87
2023/05/10 07:22:27;;;;;;;10.35;4.07;;;13.70;99.90;;;;;;5098029;27;20122;-86
2023/05/10 07:24:52;;;;;;;10.20;4.60;;;13.70;99.90;;;;;;5090048;27;20035;-87
2023/05/10 07:27:18;;;;;;;10.85;6.82;;;13.70;99.90;;;;;;5087538;27;20081;-87
2023/05/10 07:29:44;;;;;;;9.68;3.58;;;13.80;99.90;;;;;;5100981;27;20031;-87
2023/05/10 07:32:09;;;;;;;11.27;3.30;;;13.80;99.90;;;;;;5085826;27;20039;-87
2023/05/10 07:34:35;;;;;;;11.15;7.13;;;13.70;99.90;;;;;;5085750;27;20048;-88
2023/05/10 07:37:01;;;;;;;10.07;4.20;;;13.80;99.90;;;;;;5086124;27;20508;-87
2023/05/10 07:39:27;;;;;;;10.82;3.90;;;13.80;99.90;;;;;;5096271;27;20494;-88
2023/05/10 07:41:53;;;;;;;10.75;6.97;;;13.70;99.90;;;;;;5097126;27;20041;-87
2023/05/10 07:44:20;;;;;;;11.98;6.65;;;13.80;99.90;;;;;;5114710;27;20082;-87
2023/05/10 07:46:46;;;;;;;8.57;3.90;;;13.80;99.90;;;;;;5114943;27;20047;-88
2023/05/10 07:49:11;;;;;;;9.45;3.53;;;13.80;99.90;;;;;;5114766;27;20076;-87
2023/05/10 07:51:37;;;;;;;9.77;4.07;;;13.80;99.90;;;;;;5114347;27;20449;-87
2023/05/10 07:54:03;;;;;;;9.90;3.70;;;13.70;99.90;;;;;;5078934;28;20047;-87
2023/05/10 07:56:31;;;;;;;9.73;6.05;;;13.80;99.90;;;;;;5094155;28;20575;-87
2023/05/10 07:58:58;;;;;;;8.45;3.45;;;13.80;99.90;;;;;;5094016;28;20043;-87
2023/05/10 08:01:24;;;;;;;9.20;3.65;;;13.90;99.90;;;;;;5077029;28;20054;-87
2023/05/10 08:03:50;;;;;;;8.95;3.13;;;13.90;99.90;;;;;;5077433;28;20044;-87
2023/05/10 08:06:18;;;;;;;12.00;7.38;;;14.00;99.90;;;;;;5094007;28;20079;-87
2023/05/10 08:08:48;;;;;;;12.43;6.97;;;14.10;99.90;;;;;;5078025;28;20046;-87
2023/05/10 08:11:17;;;;;;;9.73;3.42;;;14.20;99.90;;;;;;5079423;28;20047;-87
2023/05/10 08:13:44;;;;;;;9.95;3.17;;;14.20;99.90;;;;;;5077318;28;20100;-87
2023/05/10 08:16:10;;;;;;;8.90;3.63;;;14.20;99.90;;;;;;5102786;27;20041;-87
2023/05/10 08:18:36;;;;;;;6.85;2.92;;;14.20;99.90;;;;;;5114214;28;20043;-87
2023/05/10 08:21:02;;;;;;;10.82;5.63;;;14.30;99.90;;;;;;5114005;28;20073;-87
2023/05/10 08:23:27;;;;;;;9.98;5.78;;;14.30;99.90;;;;;;5097083;28;20042;-87
2023/05/10 08:25:53;;;;;;;9.45;3.47;;;14.40;99.90;;;;;;5097287;28;20058;-87
2023/05/10 08:28:19;;;;;;;8.30;2.88;;;14.40;99.90;;;;;;5114361;28;20055;-87
2023/05/10 08:30:44;;;;;;;10.23;3.72;;;14.30;99.90;;;;;;5097119;28;20511;-88
2023/05/10 08:33:10;;;;;;;9.13;3.83;;;14.30;99.90;;;;;;5097357;28;20083;-88
2023/05/10 08:35:35;;;;;;;8.55;3.25;;;14.30;99.90;;;;;;5097295;28;20035;-87
2023/05/10 08:38:01;;;;;;;9.93;5.07;;;14.30;99.90;;;;;;5114062;28;20444;-87
2023/05/10 08:40:27;;;;;;;9.48;5.15;;;14.40;99.90;;;;;;5097166;28;20043;-87
2023/05/10 08:43:02;;;;;;;9.98;5.30;;;14.50;99.90;;;;;;5097141;28;20037;-87
2023/05/10 08:45:33;;;;;;;7.60;2.60;;;14.60;99.90;;;;;;5114266;28;20070;-87
2023/05/10 08:48:01;;;;;;;6.72;2.35;;;14.50;99.90;;;;;;5097306;28;20121;-87
2023/05/10 08:50:29;;;;;;;7.85;2.38;;;14.50;99.90;;;;;;5114133;28;20036;-87
2023/05/10 08:52:58;;;;;;;7.30;2.17;;;14.50;99.90;;;;;;5107985;28;20054;-87
2023/05/10 08:55:24;;;;;;;8.20;3.40;;;14.50;99.90;;;;;;5097067;28;20035;-87
2023/05/10 08:57:50;;;;;;;7.68;3.53;;;14.60;99.90;;;;;;5097200;28;20035;-87
2023/05/10 09:00:17;;;;;;;6.32;2.33;;;14.60;99.90;;;;;;5113521;28;20043;-87
2023/05/10 09:02:45;;;;;;;8.27;4.30;;;14.60;99.90;;;;;;5097168;28;20549;-87
2023/05/10 09:05:11;;;;;;;6.68;2.13;;;14.60;99.90;;;;;;5113877;28;20035;-87
2023/05/10 09:07:37;;;;;;;8.98;4.20;;;14.60;99.90;;;;;;5096915;28;20035;-87
2023/05/10 09:10:04;;;;;;;9.45;3.70;;;14.70;99.90;;;;;;5113595;28;20107;-87
2023/05/10 09:12:30;;;;;;;6.15;2.30;;;14.70;99.90;;;;;;5113790;28;20088;-87
2023/05/10 09:14:57;;;;;;;7.88;2.78;;;14.70;99.90;;;;;;5097042;28;20027;-87
2023/05/10 09:17:24;;;;;;;8.85;2.95;;;14.70;99.90;;;;;;5113728;28;20046;-87
2023/05/10 09:19:56;;;;;;;7.88;2.72;;;14.70;99.90;;;;;;5113538;28;20035;-87
2023/05/10 09:22:22;;;;;;;9.15;4.40;;;14.80;99.90;;;;;;5113957;28;20077;-88
2023/05/10 09:25:02;;;;;;;8.10;4.10;;;14.80;99.90;;;;;;5096843;28;20042;-88
2023/05/10 09:27:28;;;;;;;9.15;2.97;;;14.90;99.90;;;;;;5113602;28;20035;-88
2023/05/10 09:29:54;;;;;;;7.97;2.88;;;14.90;99.90;;;;;;5113560;28;20035;-88
2023/05/10 09:32:20;;;;;;;8.45;3.05;;;14.90;99.90;;;;;;5096747;28;20045;-87
2023/05/10 09:34:49;;;;;;;7.40;3.90;;;15.00;99.90;;;;;;5115131;27;20039;-88
2023/05/10 09:37:15;;;;;;;8.23;4.53;;;15.10;99.90;;;;;;5116351;27;20088;-88
2023/05/10 09:39:41;;;;;;;7.45;4.15;;;15.20;99.90;;;;;;5116758;27;20039;-88
2023/05/10 09:42:10;;;;;;;8.88;2.88;;;15.30;99.90;;;;;;5100067;27;20035;-88
2023/05/10 09:44:36;;;;;;;7.70;3.20;;;15.20;99.90;;;;;;5100186;27;20039;-88
2023/05/10 09:47:02;;;;;;;8.55;4.70;;;15.20;99.90;;;;;;5099955;27;20035;-88
2023/05/10 09:49:28;;;;;;;8.75;4.60;;;15.20;99.90;;;;;;5116493;27;20035;-88
2023/05/10 09:52:05;;;;;;;7.95;4.43;;;15.30;99.90;;;;;;5116873;27;20047;-88
2023/05/10 09:54:31;;;;;;;7.97;2.92;;;15.30;99.90;;;;;;5099873;27;20031;-88
2023/05/10 09:56:57;;;;;;;8.02;4.15;;;15.20;99.90;;;;;;5100169;27;20430;-87
2023/05/10 09:59:26;;;;;;;8.98;5.47;;;15.20;99.90;;;;;;5100110;27;20489;-88
2023/05/10 10:01:52;;;;;;;10.05;4.85;;;15.20;99.90;;;;;;5096532;28;20100;-88
2023/05/10 10:04:21;;;;;;;8.45;4.00;;;15.10;99.90;;;;;;5070495;28;20447;-87
2023/05/10 10:06:57;;;;;;;9.55;5.97;;;15.20;99.90;;;;;;5064473;28;20032;-88
2023/05/10 10:09:24;;;;;;;9.27;3.75;;;15.30;99.90;;;;;;5075776;28;20040;-88
2023/05/10 10:11:50;;;;;;;9.13;3.88;;;15.30;99.90;;;;;;5075017;28;20040;-88
2023/05/10 10:14:18;;;;;;;10.52;6.53;;;15.30;99.90;;;;;;5073106;28;20545;-88
2023/05/10 10:16:44;;;;;;;9.65;4.50;;;15.30;99.90;;;;;;5056341;28;20036;-87
2023/05/10 10:19:10;;;;;;;8.85;4.45;;;15.30;99.90;;;;;;5072638;28;20066;-88
2023/05/10 10:21:36;;;;;;;9.60;4.50;;;15.30;99.90;;;;;;5055935;28;20040;-87
2023/05/10 10:24:01;;;;;;;10.05;6.30;;;15.30;99.90;;;;;;5073150;28;20044;-88
2023/05/10 10:26:27;;;;;;;9.18;5.93;;;15.30;99.90;;;;;;5072845;28;20491;-88
2023/05/10 10:29:12;;;;;;;8.07;3.97;;;15.40;99.90;;;;;;5072669;28;20096;-88
2023/05/10 10:31:41;;;;;;;8.98;5.93;;;15.40;99.90;;;;;;5072610;28;20044;-88
2023/05/10 10:34:09;;;;;;;9.60;5.80;;;15.50;99.90;;;;;;5057194;28;20032;-88
2023/05/10 10:36:48;;;;;;;9.98;6.05;;;15.60;99.90;;;;;;5058106;28;20047;-89
2023/05/10 10:39:14;;;;;;;11.70;3.92;;;15.70;99.90;;;;;;5075431;28;20060;-88
2023/05/10 10:41:53;;;;;;;10.43;6.88;;;15.60;99.90;;;;;;5058145;28;20044;-89
2023/05/10 10:44:25;;;;;;;9.50;6.47;;;15.60;99.90;;;;;;5058681;28;20089;-87
2023/05/10 10:47:24;;;;;;;10.63;4.38;;;15.60;99.90;;;;;;5075149;28;20040;-88
2023/05/10 10:50:08;;;;;;;8.70;4.00;;;15.50;99.90;;;;;;5058444;28;20043;-89
2023/05/10 10:52:38;;;;;;;10.98;6.57;;;15.50;99.90;;;;;;5058470;28;20082;-88
2023/05/10 10:55:17;;;;;;;9.98;6.55;;;15.50;99.90;;;;;;5058673;28;20172;-89
2023/05/10 10:57:48;;;;;;;9.38;4.63;;;15.60;99.90;;;;;;5058263;28;20028;-88
2023/05/10 11:00:21;;;;;;;10.85;5.55;;;15.60;99.90;;;;;;5074659;28;20090;-88
2023/05/10 11:02:49;;;;;;;10.93;6.22;;;15.60;99.90;;;;;;5058204;28;20072;-88
2023/05/10 11:05:35;;;;;;;11.52;8.63;;;15.60;99.90;;;;;;5058250;28;20042;-89
2023/05/10 11:08:13;;;;;;;10.20;5.88;;;15.60;99.90;;;;;;5092982;28;20123;-88
2023/05/10 11:10:40;;;;;;;11.13;5.47;;;15.70;99.90;;;;;;5074529;28;20040;-89
2023/05/10 11:13:08;;;;;;;12.82;8.25;;;15.70;99.90;;;;;;5058217;28;20040;-88
2023/05/10 11:15:38;;;;;;;11.77;8.63;;;15.80;99.90;;;;;;5074719;28;20039;-88
2023/05/10 11:18:24;;;;;;;9.25;5.22;;;15.90;99.90;;;;;;5057954;28;20203;-89
2023/05/10 11:21:05;;;;;;;10.13;7.18;;;15.90;99.90;;;;;;5087530;27;20070;-88
2023/05/10 11:23:39;;;;;;;10.75;5.95;;;15.90;99.90;;;;;;5086542;27;20483;-88
2023/05/10 11:26:10;;;;;;;11.90;8.15;;;16.00;99.90;;;;;;5096024;28;20401;-89
2023/05/10 11:28:45;;;;;;;10.93;8.20;;;16.00;99.90;;;;;;5078102;28;20051;-88
2023/05/10 11:31:13;;;;;;;11.00;5.57;;;16.10;99.90;;;;;;5094335;28;20039;-88
2023/05/10 11:33:53;;;;;;;11.00;8.27;;;16.10;99.90;;;;;;5094747;28;20451;-88
2023/05/10 11:36:20;;;;;;;10.40;5.68;;;16.20;99.90;;;;;;5094109;28;20050;-89
2023/05/10 11:38:47;;;;;;;10.00;5.13;;;16.10;99.90;;;;;;5091914;28;20063;-89
2023/05/10 11:41:13;;;;;;;10.82;8.32;;;16.10;99.90;;;;;;5092211;28;20039;-88
2023/05/10 11:43:40;;;;;;;11.73;8.57;;;16.10;99.90;;;;;;5077391;28;20054;-88
2023/05/10 11:46:10;;;;;;;13.52;9.95;;;16.10;99.90;;;;;;5094361;28;20043;-88
2023/05/10 11:48:38;;;;;;;11.13;8.65;;;16.10;99.90;;;;;;5077547;28;20047;-88
2023/05/10 11:51:04;;;;;;;11.52;8.77;;;16.10;99.90;;;;;;5094378;28;20096;-88
2023/05/10 11:53:31;;;;;;;10.50;5.78;;;16.10;99.90;;;;;;5077388;28;20028;-88
2023/05/10 11:56:08;;;;;;;10.40;7.53;;;16.10;99.90;;;;;;5082724;27;20084;-88
2023/05/10 11:58:35;;;;;;;10.38;7.53;;;16.10;99.90;;;;;;5086478;27;20088;-88
2023/05/10 12:01:02;;;;;;;10.73;6.18;;;16.10;99.90;;;;;;5086336;27;20122;-87
2023/05/10 12:03:28;;;;;;;10.40;7.47;;;16.00;99.90;;;;;;5086551;27;20042;-88
2023/05/10 12:05:55;;;;;;;11.80;8.20;;;16.00;99.90;;;;;;5111207;27;20043;-88
2023/05/10 12:08:23;;;;;;;10.60;8.43;;;16.00;99.90;;;;;;5097406;27;20042;-88
2023/05/10 12:10:49;;;;;;;12.50;8.50;;;16.00;99.90;;;;;;5114111;27;20035;-88
2023/05/10 12:13:15;;;;;;;12.48;8.65;;;16.00;99.90;;;;;;5097255;28;20034;-88
2023/05/10 12:15:41;;;;;;;12.55;5.32;;;16.00;99.90;;;;;;5114214;27;20027;-88
2023/05/10 12:18:11;;;;;;;11.75;7.80;;;15.90;99.90;;;;;;5132906;27;20039;-88
2023/05/10 12:20:38;;;;;;;11.75;7.38;;;15.80;99.90;;;;;;5097490;28;20125;-88
2023/05/10 12:23:05;;;;;;;9.85;5.13;;;15.90;99.90;;;;;;5097314;28;20039;-88
2023/05/10 12:25:33;;;;;;;10.27;6.22;;;15.80;99.90;;;;;;5097265;28;20408;-87
2023/05/10 12:28:01;;;;;;;9.88;5.30;;;15.80;99.90;;;;;;5097131;28;20039;-88
2023/05/10 12:30:31;;;;;;;11.52;8.43;;;15.80;99.90;;;;;;5132409;28;20096;-88
2023/05/10 12:33:02;;;;;;;11.73;8.77;;;15.80;99.90;;;;;;5114352;28;20036;-87
2023/05/10 12:35:32;;;;;;;10.80;5.50;;;15.90;99.90;;;;;;5114160;28;20046;-88
2023/05/10 12:37:58;;;;;;;11.70;8.32;;;15.90;99.90;;;;;;5097202;28;20114;-88
2023/05/10 12:40:23;;;;;;;12.68;8.63;;;15.90;99.90;;;;;;5113263;28;20031;-87
2023/05/10 12:42:49;;;;;;;11.80;8.70;;;15.90;99.90;;;;;;5097557;28;20035;-88